Time;durP1;ratioP1;P1;durP2;ratioP2;P2;SDS_P1;SDS_P2;PMS_P1;PMS_P2;Temp;Humidity;BMP_temperature;BMP_pressure;BME280_temperature;BME280_humidity;BME280_pressure;Samples;Min_cycle;Max_cycle;Signal;HPM_P1;HPM_P2
2022/08/29 00:00:20;;;;;;;21.35;6.22;;;18.70;99.90;;;;;;5143646;28;20050;-77
2022/08/29 00:02:54;;;;;;;20.05;5.68;;;18.70;99.90;;;;;;5145269;28;20031;-76
2022/08/29 00:05:28;;;;;;;22.45;6.28;;;18.90;99.90;;;;;;5141459;28;20027;-76
2022/08/29 00:08:00;;;;;;;16.45;5.22;;;18.40;99.90;;;;;;5144138;28;20162;-78
2022/08/29 00:10:33;;;;;;;24.90;5.90;;;18.40;99.90;;;;;;5137632;28;20118;-77
2022/08/29 00:13:06;;;;;;;16.63;5.53;;;18.40;99.90;;;;;;5148915;28;20027;-76
2022/08/29 00:15:38;;;;;;;12.70;4.82;;;18.40;99.90;;;;;;5144548;28;20526;-76
2022/08/29 00:18:09;;;;;;;16.50;5.57;;;18.40;99.90;;;;;;5145360;28;20023;-79
2022/08/29 00:20:40;;;;;;;16.90;6.15;;;18.30;99.90;;;;;;5145621;28;20031;-78
2022/08/29 00:23:11;;;;;;;18.85;5.60;;;18.20;99.90;;;;;;5151824;28;20828;-78
2022/08/29 00:25:42;;;;;;;18.90;5.85;;;18.30;99.90;;;;;;5145293;28;20102;-78
2022/08/29 00:28:13;;;;;;;22.50;5.50;;;18.10;99.90;;;;;;5146000;28;20402;-78
2022/08/29 00:30:44;;;;;;;19.52;5.05;;;18.60;99.90;;;;;;5146509;28;20023;-79
2022/08/29 00:33:15;;;;;;;15.13;5.15;;;18.50;99.90;;;;;;5145763;28;20062;-78
2022/08/29 00:35:46;;;;;;;14.80;5.50;;;18.50;99.90;;;;;;5145810;28;20073;-77
2022/08/29 00:38:17;;;;;;;18.13;5.95;;;18.30;99.90;;;;;;5145202;28;20039;-77
2022/08/29 00:40:51;;;;;;;23.77;5.95;;;18.20;99.90;;;;;;5143533;28;20042;-78
2022/08/29 00:43:26;;;;;;;20.77;5.63;;;18.20;99.90;;;;;;5145007;28;20250;-78
2022/08/29 00:46:42;;;;;;;18.48;5.53;;;18.30;99.90;;;;;;5147178;28;20034;-78
2022/08/29 00:49:21;;;;;;;16.50;5.30;;;18.40;99.90;;;;;;5137190;28;20042;-78
2022/08/29 00:51:54;;;;;;;22.73;6.22;;;18.40;99.90;;;;;;5141307;28;20085;-78
2022/08/29 00:54:26;;;;;;;20.20;6.50;;;18.30;99.90;;;;;;5140468;28;20388;-78
2022/08/29 00:56:58;;;;;;;15.00;5.55;;;18.10;99.90;;;;;;5144872;28;20475;-78
2022/08/29 00:59:36;;;;;;;17.42;5.97;;;18.20;99.90;;;;;;5146744;28;20058;-78
2022/08/29 01:02:09;;;;;;;19.80;6.20;;;18.40;99.90;;;;;;5149057;28;20031;-78
2022/08/29 01:04:41;;;;;;;19.60;6.35;;;18.60;99.90;;;;;;5151982;28;20022;-78
2022/08/29 01:07:12;;;;;;;22.63;6.07;;;18.10;99.90;;;;;;5148598;28;20086;-78
2022/08/29 01:09:45;;;;;;;18.35;5.68;;;18.30;99.90;;;;;;5148430;28;20471;-77
2022/08/29 01:12:16;;;;;;;19.13;5.93;;;18.30;99.90;;;;;;5152459;28;20035;-78
2022/08/29 01:14:49;;;;;;;14.23;5.72;;;18.20;99.90;;;;;;5148228;28;20022;-78
2022/08/29 01:17:46;;;;;;;28.42;7.70;;;18.20;99.90;;;;;;5147940;28;20034;-78
2022/08/29 01:20:32;;;;;;;20.40;7.43;;;18.10;99.90;;;;;;5142018;28;20045;-78
2022/08/29 01:23:11;;;;;;;21.85;6.97;;;18.40;99.90;;;;;;5147570;28;20085;-78
2022/08/29 01:25:49;;;;;;;19.58;6.70;;;18.60;99.90;;;;;;5147027;28;20070;-78
2022/08/29 01:28:29;;;;;;;26.23;6.80;;;18.60;99.90;;;;;;5143732;28;20102;-78
2022/08/29 01:31:05;;;;;;;21.52;6.15;;;18.50;99.90;;;;;;5148113;28;20097;-78
2022/08/29 01:33:43;;;;;;;21.83;6.30;;;18.40;99.90;;;;;;5148076;28;20018;-78
2022/08/29 01:36:18;;;;;;;23.30;6.68;;;18.30;99.90;;;;;;5164640;28;20030;-78
2022/08/29 01:38:50;;;;;;;22.92;7.00;;;18.40;99.90;;;;;;5146977;28;20053;-77
2022/08/29 01:41:21;;;;;;;25.42;7.00;;;18.50;99.90;;;;;;5147051;28;20102;-78
2022/08/29 01:43:54;;;;;;;20.45;7.68;;;18.50;99.90;;;;;;5147752;28;20023;-78
2022/08/29 01:46:30;;;;;;;26.77;8.05;;;18.10;99.90;;;;;;5144044;28;20029;-78
2022/08/29 01:49:04;;;;;;;29.35;8.27;;;18.20;99.90;;;;;;5147467;28;20506;-78
2022/08/29 01:51:36;;;;;;;22.98;7.40;;;18.30;99.90;;;;;;5147726;28;20454;-78
2022/08/29 01:54:09;;;;;;;27.60;8.05;;;18.50;99.90;;;;;;5146424;28;20570;-78
2022/08/29 01:56:43;;;;;;;26.75;8.07;;;18.40;99.90;;;;;;5146541;28;20442;-78
2022/08/29 01:59:17;;;;;;;22.92;7.65;;;18.30;99.90;;;;;;5147481;28;20031;-78
2022/08/29 02:02:15;;;;;;;29.30;8.60;;;18.40;99.90;;;;;;5147435;28;20035;-78
2022/08/29 02:04:47;;;;;;;27.23;10.00;;;18.30;99.90;;;;;;5146967;28;20106;-77
2022/08/29 02:07:20;;;;;;;45.67;9.38;;;18.30;99.90;;;;;;5147243;28;20044;-78
2022/08/29 02:09:51;;;;;;;27.85;8.93;;;18.00;99.90;;;;;;5141775;28;20110;-78
2022/08/29 02:12:23;;;;;;;32.38;9.23;;;18.10;99.90;;;;;;5146735;28;20559;-78
2022/08/29 02:14:54;;;;;;;26.98;8.73;;;18.20;99.90;;;;;;5147240;28;20491;-78
2022/08/29 02:17:25;;;;;;;21.67;7.25;;;18.00;99.90;;;;;;5149383;28;21317;-78
2022/08/29 02:19:57;;;;;;;19.65;7.85;;;17.90;99.90;;;;;;5145856;28;20022;-78
2022/08/29 02:22:28;;;;;;;23.50;8.85;;;17.80;99.90;;;;;;5149384;28;20041;-78
2022/08/29 02:24:59;;;;;;;23.08;7.43;;;17.80;99.90;;;;;;5145592;28;20550;-78
2022/08/29 02:27:31;;;;;;;22.38;8.00;;;18.00;99.90;;;;;;5145770;28;20031;-78
2022/08/29 02:30:02;;;;;;;26.70;8.48;;;17.70;99.90;;;;;;5145687;28;20084;-78
2022/08/29 02:32:33;;;;;;;25.23;7.97;;;17.80;99.90;;;;;;5146926;28;20085;-78
2022/08/29 02:35:04;;;;;;;29.25;9.13;;;18.10;99.90;;;;;;5146530;28;20031;-78
2022/08/29 02:37:34;;;;;;;23.58;8.35;;;17.90;99.90;;;;;;5144909;28;20039;-78
2022/08/29 02:40:07;;;;;;;23.77;7.70;;;18.00;99.90;;;;;;5150355;28;20038;-78
2022/08/29 02:42:37;;;;;;;25.58;7.90;;;18.00;99.90;;;;;;5147577;28;20643;-78
2022/08/29 02:45:09;;;;;;;26.52;7.95;;;18.10;99.90;;;;;;5146677;28;20044;-78
2022/08/29 02:47:40;;;;;;;28.20;8.35;;;18.10;99.90;;;;;;5146465;28;20034;-78
2022/08/29 02:50:12;;;;;;;20.33;7.70;;;18.00;99.90;;;;;;5146579;28;20023;-77
2022/08/29 02:52:43;;;;;;;19.77;7.53;;;18.20;99.90;;;;;;5148234;28;20031;-78
2022/08/29 02:55:18;;;;;;;18.42;6.97;;;18.20;99.90;;;;;;5149497;28;20027;-77
2022/08/29 02:57:49;;;;;;;21.33;7.05;;;18.20;99.90;;;;;;5146204;28;20031;-78
2022/08/29 03:00:24;;;;;;;24.00;7.30;;;17.80;99.90;;;;;;5145647;28;20093;-78
2022/08/29 03:02:55;;;;;;;21.90;6.95;;;17.90;99.90;;;;;;5145203;28;20074;-78
2022/08/29 03:05:31;;;;;;;20.60;7.20;;;18.10;99.90;;;;;;5161456;28;20026;-78
2022/08/29 03:08:08;;;;;;;23.10;7.50;;;18.00;99.90;;;;;;5148625;28;20038;-77
2022/08/29 03:10:40;;;;;;;29.33;8.52;;;18.00;99.90;;;;;;5146402;28;20562;-77
2022/08/29 03:13:11;;;;;;;22.75;8.60;;;18.00;99.90;;;;;;5146022;28;20027;-77
2022/08/29 03:15:42;;;;;;;35.90;9.38;;;17.90;99.90;;;;;;5145310;28;20570;-77
2022/08/29 03:18:13;;;;;;;29.38;9.07;;;17.90;99.90;;;;;;5147045;28;20026;-77
2022/08/29 03:20:45;;;;;;;26.75;8.93;;;17.90;99.90;;;;;;5145883;28;20560;-78
2022/08/29 03:23:16;;;;;;;26.00;10.07;;;17.90;99.90;;;;;;5146433;28;20133;-78
2022/08/29 03:25:46;;;;;;;35.13;10.13;;;17.90;99.90;;;;;;5146911;28;20106;-77
2022/08/29 03:28:17;;;;;;;35.30;9.70;;;17.80;99.90;;;;;;5145984;28;20022;-78
2022/08/29 03:30:48;;;;;;;32.35;8.93;;;17.60;99.90;;;;;;5151521;28;20037;-78
2022/08/29 03:33:19;;;;;;;37.85;9.65;;;17.80;99.90;;;;;;5145204;28;20019;-77
2022/08/29 03:35:50;;;;;;;32.72;9.75;;;17.70;99.90;;;;;;5141521;28;20034;-78
2022/08/29 03:38:21;;;;;;;29.35;9.05;;;17.90;99.90;;;;;;5148874;28;20030;-79
2022/08/29 03:40:52;;;;;;;21.45;7.78;;;17.90;99.90;;;;;;5136561;28;20058;-78
2022/08/29 03:43:23;;;;;;;31.80;9.70;;;18.00;99.90;;;;;;5142399;28;20894;-78
2022/08/29 03:45:54;;;;;;;27.33;9.43;;;17.60;99.90;;;;;;5145656;28;20102;-78
2022/08/29 03:48:25;;;;;;;29.60;9.35;;;17.60;99.90;;;;;;5145615;28;20051;-78
2022/08/29 03:50:56;;;;;;;31.23;8.98;;;17.60;99.90;;;;;;5145475;28;20015;-78
2022/08/29 03:53:30;;;;;;;21.30;8.07;;;17.80;99.90;;;;;;5145557;28;20062;-78
2022/08/29 03:56:03;;;;;;;27.95;8.88;;;17.70;99.90;;;;;;5145750;28;20391;-78
2022/08/29 03:58:34;;;;;;;24.95;8.55;;;17.80;99.90;;;;;;5145609;28;20097;-77
2022/08/29 04:01:05;;;;;;;25.50;8.60;;;17.80;99.90;;;;;;5145507;28;20058;-78
2022/08/29 04:03:36;;;;;;;24.38;8.65;;;17.50;99.90;;;;;;5145221;28;20073;-77
2022/08/29 04:06:07;;;;;;;24.13;8.63;;;17.60;99.90;;;;;;5145537;28;20464;-78
2022/08/29 04:08:37;;;;;;;23.55;8.63;;;17.80;99.90;;;;;;5153825;28;20030;-77
2022/08/29 04:11:10;;;;;;;26.83;8.82;;;17.50;99.90;;;;;;5145209;28;20035;-78
2022/08/29 04:13:41;;;;;;;20.88;8.10;;;17.70;99.90;;;;;;5145476;28;20493;-77
2022/08/29 04:16:18;;;;;;;21.33;8.02;;;17.90;99.90;;;;;;5145421;28;20037;-78
2022/08/29 04:18:49;;;;;;;28.83;8.02;;;17.90;99.90;;;;;;5145442;28;20019;-78
2022/08/29 04:21:20;;;;;;;26.15;7.75;;;17.90;99.90;;;;;;5145261;28;20398;-78
2022/08/29 04:23:51;;;;;;;24.23;8.15;;;18.00;99.90;;;;;;5147704;28;20039;-78
2022/08/29 04:26:22;;;;;;;22.80;7.28;;;18.00;99.90;;;;;;5146961;28;20030;-78
2022/08/29 04:28:53;;;;;;;21.15;7.55;;;18.20;99.90;;;;;;5145041;28;20038;-78
2022/08/29 04:31:23;;;;;;;21.48;7.85;;;18.30;99.90;;;;;;5146271;28;20023;-78
2022/08/29 04:33:55;;;;;;;23.13;7.68;;;18.30;99.90;;;;;;5148818;28;20045;-79
2022/08/29 04:36:27;;;;;;;25.85;8.15;;;18.20;99.90;;;;;;5148864;28;20026;-78
2022/08/29 04:38:57;;;;;;;19.02;7.82;;;18.40;99.90;;;;;;5150637;28;20034;-78
2022/08/29 04:41:28;;;;;;;23.00;7.90;;;18.30;99.90;;;;;;5148576;28;20043;-78
2022/08/29 04:44:00;;;;;;;27.00;8.00;;;18.30;99.90;;;;;;5155288;28;20506;-78
2022/08/29 04:46:31;;;;;;;24.67;7.90;;;18.40;99.90;;;;;;5146837;28;20471;-78
2022/08/29 04:49:02;;;;;;;24.25;8.07;;;18.60;99.90;;;;;;5148787;28;20019;-77
2022/08/29 04:51:34;;;;;;;26.00;7.85;;;18.70;99.90;;;;;;5148777;28;20722;-78
2022/08/29 04:54:05;;;;;;;25.55;8.07;;;18.80;99.90;;;;;;5152060;28;20023;-77
2022/08/29 04:56:37;;;;;;;19.15;7.63;;;18.80;99.90;;;;;;5148850;28;20035;-77
2022/08/29 04:59:07;;;;;;;23.92;7.55;;;18.80;99.90;;;;;;5147739;28;20471;-78
2022/08/29 05:01:38;;;;;;;26.33;8.38;;;19.10;99.90;;;;;;5148579;28;20034;-78
2022/08/29 05:04:10;;;;;;;27.92;8.65;;;19.50;99.90;;;;;;5155230;28;20046;-78
2022/08/29 05:06:42;;;;;;;25.45;7.55;;;19.50;99.90;;;;;;5148372;28;20026;-77
2022/08/29 05:09:13;;;;;;;19.17;7.70;;;19.50;99.90;;;;;;5148100;28;20027;-77
2022/08/29 05:11:43;;;;;;;23.08;7.07;;;19.60;99.90;;;;;;5145272;28;20106;-77
2022/08/29 05:14:15;;;;;;;24.55;7.85;;;19.80;99.90;;;;;;5150502;28;20031;-80
2022/08/29 05:16:48;;;;;;;27.15;8.57;;;19.80;99.90;;;;;;5152863;28;20391;-79
2022/08/29 05:19:23;;;;;;;18.27;7.63;;;20.10;99.90;;;;;;5150499;28;20030;-79
2022/08/29 05:21:57;;;;;;;20.25;6.80;;;20.30;99.90;;;;;;5147846;28;20035;-78
2022/08/29 05:24:30;;;;;;;24.70;7.90;;;20.30;99.90;;;;;;5150071;28;20472;-79
2022/08/29 05:27:05;;;;;;;21.80;6.88;;;20.40;99.90;;;;;;5148163;28;20030;-79
2022/08/29 05:29:41;;;;;;;21.13;7.20;;;20.60;99.90;;;;;;5147687;28;20557;-80
2022/08/29 05:32:14;;;;;;;22.83;7.57;;;20.90;99.90;;;;;;5149283;28;20102;-77
2022/08/29 05:34:46;;;;;;;22.20;7.35;;;21.10;99.90;;;;;;5148127;28;20031;-77
2022/08/29 05:37:19;;;;;;;18.80;6.97;;;21.10;99.90;;;;;;5148099;28;20101;-77
2022/08/29 05:39:50;;;;;;;18.70;6.00;;;21.50;99.90;;;;;;5149007;28;20022;-77
2022/08/29 05:42:22;;;;;;;19.42;6.63;;;21.70;99.90;;;;;;5146594;28;20047;-77
2022/08/29 05:44:53;;;;;;;20.90;7.03;;;21.80;99.90;;;;;;5142931;28;20024;-75
2022/08/29 05:47:24;;;;;;;19.13;6.72;;;22.00;99.90;;;;;;5148630;28;20035;-78
2022/08/29 05:49:55;;;;;;;20.75;6.80;;;22.20;99.90;;;;;;5149003;28;20030;-79
2022/08/29 05:52:28;;;;;;;18.25;6.22;;;22.50;99.90;;;;;;5148982;28;20030;-78
2022/08/29 05:55:00;;;;;;;35.85;7.07;;;22.50;99.90;;;;;;5147925;28;20061;-77
2022/08/29 05:57:31;;;;;;;22.75;6.38;;;22.90;99.90;;;;;;5148870;28;20037;-79
2022/08/29 06:00:04;;;;;;;23.23;6.70;;;22.90;99.90;;;;;;5147293;28;20027;-79
2022/08/29 06:02:35;;;;;;;16.85;6.05;;;23.30;99.90;;;;;;5147311;28;20406;-78
2022/08/29 06:05:06;;;;;;;22.77;6.30;;;23.50;99.90;;;;;;5146616;28;20019;-76
2022/08/29 06:07:37;;;;;;;22.60;6.57;;;23.80;99.90;;;;;;5147380;28;20451;-79
2022/08/29 06:10:08;;;;;;;19.75;6.90;;;24.00;99.90;;;;;;5147384;28;20069;-79
2022/08/29 06:12:39;;;;;;;26.10;7.07;;;24.30;99.90;;;;;;5147426;28;20660;-85
2022/08/29 06:15:10;;;;;;;25.10;7.28;;;24.60;99.90;;;;;;5147241;28;20023;-84
2022/08/29 06:17:42;;;;;;;26.52;7.07;;;25.00;99.90;;;;;;5147180;28;20034;-83
2022/08/29 06:20:13;;;;;;;24.80;6.82;;;25.20;99.90;;;;;;5147250;28;20712;-83
2022/08/29 06:22:44;;;;;;;28.55;7.70;;;25.50;99.90;;;;;;5153768;28;20479;-81
2022/08/29 06:25:15;;;;;;;26.67;7.15;;;25.60;99.90;;;;;;5147187;28;20069;-83
2022/08/29 06:27:46;;;;;;;26.85;7.50;;;25.70;99.90;;;;;;5148472;28;20034;-83
2022/08/29 06:30:18;;;;;;;29.33;7.72;;;25.80;99.90;;;;;;5145750;28;20031;-83
2022/08/29 06:32:49;;;;;;;24.25;7.15;;;25.90;99.90;;;;;;5148033;28;20023;-82
2022/08/29 06:35:20;;;;;;;23.40;6.78;;;26.00;99.90;;;;;;5146753;28;20474;-84
2022/08/29 06:37:51;;;;;;;30.15;7.30;;;26.10;99.90;;;;;;5145777;28;20050;-81
2022/08/29 06:40:22;;;;;;;20.63;6.32;;;26.30;99.90;;;;;;5147564;28;20034;-79
2022/08/29 06:42:53;;;;;;;25.15;7.68;;;26.40;99.90;;;;;;5146901;28;20062;-79
2022/08/29 06:45:23;;;;;;;25.80;6.65;;;26.60;99.90;;;;;;5150607;28;20119;-82
2022/08/29 06:47:54;;;;;;;23.73;6.53;;;26.60;99.90;;;;;;5146780;28;20033;-81
2022/08/29 06:50:27;;;;;;;26.13;7.28;;;26.30;99.90;;;;;;5148142;28;20035;-81
2022/08/29 06:52:58;;;;;;;25.45;6.80;;;26.30;99.90;;;;;;5146846;28;20151;-80
2022/08/29 06:55:28;;;;;;;25.15;6.78;;;26.50;99.90;;;;;;5148409;28;20545;-78
2022/08/29 06:58:02;;;;;;;28.38;6.78;;;26.50;99.90;;;;;;5142341;28;20102;-82
2022/08/29 07:00:33;;;;;;;21.80;6.10;;;26.80;99.90;;;;;;5147464;28;20035;-81
2022/08/29 07:03:04;;;;;;;20.70;6.60;;;27.00;99.90;;;;;;5145842;28;20031;-83
2022/08/29 07:05:35;;;;;;;21.17;6.28;;;26.70;99.90;;;;;;5151409;28;20073;-85
2022/08/29 07:08:08;;;;;;;23.85;6.63;;;26.70;99.90;;;;;;5145668;28;20391;-78
2022/08/29 07:10:43;;;;;;;23.08;6.15;;;26.80;99.90;;;;;;5145867;28;20046;-78
2022/08/29 07:13:14;;;;;;;21.48;6.25;;;26.90;99.90;;;;;;5149638;28;20065;-79
2022/08/29 07:15:45;;;;;;;27.08;6.50;;;27.00;99.90;;;;;;5146749;28;20062;-81
2022/08/29 07:18:17;;;;;;;23.42;6.25;;;27.20;99.90;;;;;;5145643;28;20027;-77
2022/08/29 07:20:48;;;;;;;33.00;6.15;;;26.90;99.90;;;;;;5146751;28;20100;-77
2022/08/29 07:23:20;;;;;;;20.25;6.25;;;27.10;99.90;;;;;;5148284;28;20039;-77
2022/08/29 07:25:51;;;;;;;20.70;6.00;;;27.20;99.90;;;;;;5151469;28;20027;-78
2022/08/29 07:28:22;;;;;;;16.80;5.43;;;27.30;99.90;;;;;;5145333;28;20026;-80
2022/08/29 07:30:53;;;;;;;22.35;5.47;;;27.50;99.90;;;;;;5145352;28;20149;-78
2022/08/29 07:33:24;;;;;;;25.60;5.70;;;27.30;99.90;;;;;;5145527;28;20033;-78
2022/08/29 07:35:55;;;;;;;328.90;30.35;;;27.70;99.90;;;;;;5145329;28;20031;-80
2022/08/29 07:38:31;;;;;;;320.23;37.22;;;27.90;99.90;;;;;;5145464;28;20038;-78
2022/08/29 07:41:08;;;;;;;15.60;5.60;;;28.20;99.90;;;;;;5144910;28;20129;-78
2022/08/29 07:43:40;;;;;;;33.65;11.77;;;28.30;99.90;;;;;;5143965;28;20498;-79
2022/08/29 07:46:17;;;;;;;244.52;35.40;;;28.30;99.90;;;;;;5145933;28;20030;-79
2022/08/29 07:48:47;;;;;;;42.65;5.65;;;28.40;99.90;;;;;;5145768;28;20035;-86
2022/08/29 07:51:21;;;;;;;185.73;13.93;;;28.20;99.90;;;;;;5145583;28;20027;-79
2022/08/29 07:53:52;;;;;;;16.88;4.95;;;28.30;99.90;;;;;;5148885;28;20023;-79
2022/08/29 07:56:28;;;;;;;58.60;6.13;;;28.30;99.90;;;;;;5144458;28;20073;-81
2022/08/29 07:58:59;;;;;;;21.38;5.10;;;28.50;99.90;;;;;;5145791;28;20023;-80
2022/08/29 08:01:30;;;;;;;1344.47;187.82;;;28.40;99.90;;;;;;5145507;28;20097;-80
2022/08/29 08:04:01;;;;;;;159.55;18.13;;;28.70;99.90;;;;;;5147433;28;20101;-80
2022/08/29 08:06:33;;;;;;;16.95;6.15;;;28.50;99.90;;;;;;5144214;28;20094;-79
2022/08/29 08:09:06;;;;;;;20.20;4.90;;;28.60;99.90;;;;;;5144812;28;20030;-79
2022/08/29 08:11:38;;;;;;;18.33;5.07;;;28.80;99.90;;;;;;5150259;28;20037;-82
2022/08/29 08:14:10;;;;;;;15.02;4.35;;;29.00;99.90;;;;;;5150740;28;20022;-80
2022/08/29 08:16:42;;;;;;;187.77;17.25;;;28.90;99.90;;;;;;5148358;28;20379;-82
2022/08/29 08:19:14;;;;;;;20.42;4.82;;;28.90;99.90;;;;;;5148352;28;21307;-82
2022/08/29 08:21:45;;;;;;;62.53;6.47;;;29.00;99.90;;;;;;5151060;28;20122;-78
2022/08/29 08:24:17;;;;;;;21.52;5.25;;;29.00;99.90;;;;;;5149496;28;20599;-81
2022/08/29 08:26:48;;;;;;;21.50;4.60;;;28.90;99.90;;;;;;5149125;28;20086;-82
2022/08/29 08:29:19;;;;;;;167.70;22.35;;;28.80;99.90;;;;;;5149394;28;20026;-79
2022/08/29 08:31:50;;;;;;;18.35;5.13;;;29.00;99.90;;;;;;5149470;28;20022;-77
2022/08/29 08:34:21;;;;;;;114.22;7.95;;;29.10;99.90;;;;;;5149354;28;20023;-79
2022/08/29 08:36:53;;;;;;;15.05;4.78;;;29.00;99.90;;;;;;5149284;28;20019;-78
2022/08/29 08:39:24;;;;;;;23.17;4.07;;;29.20;99.90;;;;;;5150209;28;20030;-79
2022/08/29 08:42:27;;;;;;;20.75;4.43;;;29.00;99.90;;;;;;5148662;28;20051;-79
2022/08/29 08:45:07;;;;;;;20.45;4.97;;;28.90;99.90;;;;;;5146207;28;20027;-79
2022/08/29 08:47:57;;;;;;;15.73;4.63;;;29.10;99.90;;;;;;5149106;28;20030;-78
2022/08/29 08:50:43;;;;;;;18.45;4.72;;;29.30;99.90;;;;;;5149082;28;20019;-79
2022/08/29 08:53:20;;;;;;;14.98;4.40;;;29.50;99.90;;;;;;5149030;28;20607;-79
2022/08/29 08:55:54;;;;;;;15.75;4.30;;;29.40;99.90;;;;;;5148890;28;20431;-78
2022/08/29 08:58:46;;;;;;;20.73;5.20;;;29.40;99.90;;;;;;5149035;28;20026;-83
2022/08/29 09:01:23;;;;;;;21.88;5.00;;;29.30;99.90;;;;;;5147391;28;20027;-82
2022/08/29 09:04:31;;;;;;;18.48;4.50;;;29.40;99.90;;;;;;5147570;28;20030;-78
2022/08/29 09:07:14;;;;;;;18.05;4.55;;;29.70;99.90;;;;;;5149436;28;20035;-77
2022/08/29 09:09:56;;;;;;;22.65;4.60;;;29.50;99.90;;;;;;5147895;28;20023;-83
2022/08/29 09:12:27;;;;;;;20.83;4.40;;;29.70;99.90;;;;;;5140226;28;20038;-84
2022/08/29 09:15:15;;;;;;;19.75;3.95;;;29.90;99.90;;;;;;5146283;28;20031;-82
2022/08/29 09:18:03;;;;;;;14.32;4.50;;;30.10;99.90;;;;;;5146379;28;20058;-79
2022/08/29 09:20:37;;;;;;;23.75;5.72;;;29.90;99.90;;;;;;5143199;28;20027;-77
2022/08/29 09:23:38;;;;;;;17.00;4.10;;;30.20;99.90;;;;;;5145791;28;20403;-77
2022/08/29 09:26:10;;;;;;;15.95;4.78;;;29.80;99.90;;;;;;5143565;28;20043;-81
2022/08/29 09:28:40;;;;;;;22.83;4.68;;;30.00;99.90;;;;;;5149414;28;20035;-81
2022/08/29 09:31:26;;;;;;;16.27;4.57;;;29.90;99.90;;;;;;5148066;28;20031;-82
2022/08/29 09:34:06;;;;;;;20.35;4.95;;;30.20;99.90;;;;;;5143666;28;20107;-82
2022/08/29 09:36:44;;;;;;;17.60;4.82;;;30.00;99.90;;;;;;5142839;28;20023;-83
2022/08/29 09:39:22;;;;;;;17.25;5.20;;;30.30;99.90;;;;;;5148310;28;20026;-82
2022/08/29 09:41:56;;;;;;;23.10;5.35;;;30.10;99.90;;;;;;5143793;28;20050;-83
2022/08/29 09:44:30;;;;;;;13.70;5.53;;;30.20;99.90;;;;;;5141052;28;20035;-82
2022/08/29 09:47:05;;;;;;;16.05;3.70;;;30.30;99.90;;;;;;5151233;28;20023;-83
2022/08/29 09:49:39;;;;;;;13.48;3.75;;;30.10;99.90;;;;;;5146818;28;20501;-81
2022/08/29 09:52:16;;;;;;;13.80;3.90;;;29.90;99.90;;;;;;5148004;28;20137;-81
2022/08/29 09:54:47;;;;;;;16.17;4.00;;;30.20;99.90;;;;;;5148020;28;20047;-83
2022/08/29 09:57:17;;;;;;;18.83;4.80;;;30.20;99.90;;;;;;5147789;28;20109;-81
2022/08/29 10:00:07;;;;;;;11.55;4.20;;;30.30;99.90;;;;;;5147761;28;20050;-79
2022/08/29 10:02:42;;;;;;;15.13;4.18;;;30.50;99.90;;;;;;5146806;28;20117;-80
2022/08/29 10:05:33;;;;;;;19.27;4.13;;;30.80;99.90;;;;;;5147198;28;20027;-80
2022/08/29 10:08:05;;;;;;;18.80;3.80;;;30.70;99.90;;;;;;5145171;28;20027;-81
2022/08/29 10:10:53;;;;;;;19.15;4.30;;;30.80;99.90;;;;;;5146027;28;20510;-82
2022/08/29 10:13:44;;;;;;;15.30;4.00;;;30.80;99.90;;;;;;5147507;28;20133;-77
2022/08/29 10:16:27;;;;;;;11.55;3.60;;;30.80;99.90;;;;;;5147400;28;20549;-77
2022/08/29 10:19:33;;;;;;;18.25;4.00;;;30.80;99.90;;;;;;5143916;28;20030;-79
2022/08/29 10:22:16;;;;;;;10.60;3.55;;;30.80;99.90;;;;;;5143042;28;20057;-76
2022/08/29 10:24:56;;;;;;;26.33;4.25;;;30.60;99.90;;;;;;5147077;28;20452;-81
2022/08/29 10:27:27;;;;;;;15.18;3.80;;;30.90;99.90;;;;;;5146752;28;20035;-78
2022/08/29 10:30:04;;;;;;;41.58;9.93;;;30.70;99.90;;;;;;5147023;28;20430;-80
2022/08/29 10:33:09;;;;;;;442.45;49.53;;;31.10;99.90;;;;;;5142745;28;20479;-82
2022/08/29 10:35:48;;;;;;;18.60;4.57;;;31.00;99.90;;;;;;5147052;28;20471;-85
2022/08/29 10:38:44;;;;;;;18.67;4.22;;;30.90;99.90;;;;;;5146398;28;20046;-80
2022/08/29 10:41:57;;;;;;;14.85;3.97;;;30.70;99.90;;;;;;5145730;28;20101;-84
2022/08/29 10:44:40;;;;;;;17.65;4.03;;;30.40;99.90;;;;;;5149739;28;20034;-83
2022/08/29 10:47:28;;;;;;;15.85;3.97;;;30.90;99.90;;;;;;5151527;28;20042;-84
2022/08/29 10:50:33;;;;;;;16.30;4.05;;;30.90;99.90;;;;;;5143571;28;20050;-81
2022/08/29 10:53:31;;;;;;;206.32;43.70;;;31.10;99.90;;;;;;5144055;28;20093;-81
2022/08/29 10:56:17;;;;;;;15.60;4.00;;;31.00;99.90;;;;;;5146736;28;20384;-84
2022/08/29 10:59:07;;;;;;;22.30;4.20;;;31.00;99.90;;;;;;5146849;28;20039;-81
2022/08/29 11:01:44;;;;;;;31.15;4.68;;;31.30;99.90;;;;;;5144070;28;20121;-82
2022/08/29 11:04:37;;;;;;;18.25;4.30;;;31.00;99.90;;;;;;5146283;28;20050;-81
2022/08/29 11:07:31;;;;;;;21.48;3.95;;;31.30;99.90;;;;;;5143333;28;20057;-82
2022/08/29 11:10:29;;;;;;;381.90;143.70;;;31.30;99.90;;;;;;5144635;28;20034;-77
2022/08/29 11:13:27;;;;;;;19.90;3.80;;;31.40;99.90;;;;;;5145461;28;20135;-81
2022/08/29 11:16:22;;;;;;;23.80;3.83;;;31.40;99.90;;;;;;5143474;28;20105;-78
2022/08/29 11:19:12;;;;;;;26.42;4.43;;;31.50;99.90;;;;;;5143343;28;20510;-77
2022/08/29 11:22:03;;;;;;;352.58;72.32;;;31.20;99.90;;;;;;5160376;28;20035;-79
2022/08/29 11:24:37;;;;;;;16.95;3.60;;;31.50;99.90;;;;;;5146163;28;20073;-84
2022/08/29 11:27:21;;;;;;;17.15;3.33;;;31.70;99.90;;;;;;5145798;28;20026;-83
2022/08/29 11:30:06;;;;;;;21.02;3.58;;;31.20;99.90;;;;;;5141566;28;20031;-82
2022/08/29 11:32:49;;;;;;;20.30;3.28;;;31.80;99.90;;;;;;5140147;28;20026;-83
2022/08/29 11:35:47;;;;;;;25.38;4.60;;;31.90;99.90;;;;;;5145482;28;20026;-80
2022/08/29 11:41:01;;;;;;;15.60;3.60;;;31.20;99.90;;;;;;5529171;23;21530;-80
2022/08/29 11:43:40;;;;;;;21.85;3.80;;;31.60;99.90;;;;;;5144551;28;20114;-81
2022/08/29 11:46:13;;;;;;;;;;;31.50;99.90;;;;;;5145610;28;20027;-78
2022/08/29 11:48:47;;;;;;;20.02;3.97;;;31.70;99.90;;;;;;5145647;28;19910;-78
2022/08/29 11:51:36;;;;;;;14.50;3.25;;;31.20;99.90;;;;;;5145538;28;20037;-80
2022/08/29 11:54:27;;;;;;;19.70;4.20;;;31.10;99.90;;;;;;5143405;28;20122;-82
2022/08/29 11:57:01;;;;;;;25.23;3.97;;;30.90;99.90;;;;;;5145424;28;20057;-80
2022/08/29 11:59:49;;;;;;;21.05;3.90;;;31.30;99.90;;;;;;5143598;28;20390;-80
2022/08/29 12:02:29;;;;;;;14.27;3.67;;;31.30;99.90;;;;;;5144551;28;20027;-81
2022/08/29 12:05:28;;;;;;;24.50;4.20;;;31.80;99.90;;;;;;5145242;28;20023;-82
2022/08/29 12:07:59;;;;;;;;;;;31.10;99.90;;;;;;5142473;28;20034;-82
2022/08/29 12:10:55;;;;;;;27.35;4.15;;;31.40;99.90;;;;;;5137252;28;19915;-82
2022/08/29 12:13:50;;;;;;;21.75;3.95;;;31.70;99.90;;;;;;5126211;28;20034;-84
2022/08/29 12:16:42;;;;;;;29.33;3.92;;;31.80;99.90;;;;;;5142867;28;20027;-82
2022/08/29 12:19:50;;;;;;;20.00;4.28;;;31.90;99.90;;;;;;5129708;28;20479;-82
2022/08/29 12:22:43;;;;;;;24.90;4.00;;;31.80;99.90;;;;;;5135991;28;20035;-81
2022/08/29 12:25:47;;;;;;;20.60;3.80;;;31.40;99.90;;;;;;5128866;28;20035;-80
2022/08/29 12:28:22;;;;;;;26.35;5.13;;;31.60;99.90;;;;;;5126628;28;20028;-82
2022/08/29 12:31:11;;;;;;;27.58;3.63;;;31.60;99.90;;;;;;5133617;28;20054;-80
2022/08/29 12:34:01;;;;;;;;;;;31.80;99.90;;;;;;5138636;28;20053;-80
2022/08/29 12:36:49;;;;;;;542.55;126.78;;;31.60;99.90;;;;;;5122923;28;19914;-79
2022/08/29 12:39:51;;;;;;;28.33;5.20;;;31.60;99.90;;;;;;5126513;28;20039;-79
2022/08/29 12:42:28;;;;;;;37.05;6.78;;;31.30;99.90;;;;;;5139461;28;20035;-79
2022/08/29 12:45:22;;;;;;;734.88;119.32;;;31.40;99.90;;;;;;5125616;28;20078;-80
2022/08/29 12:47:59;;;;;;;46.38;13.38;;;31.30;99.90;;;;;;5132784;28;20027;-81
2022/08/29 12:50:35;;;;;;;125.20;7.22;;;31.40;99.90;;;;;;5135690;28;20034;-81
2022/08/29 12:53:14;;;;;;;26.63;4.25;;;31.20;99.90;;;;;;5134997;28;20034;-79
2022/08/29 12:55:55;;;;;;;352.80;47.75;;;31.50;99.90;;;;;;5141693;28;20015;-80
2022/08/29 12:58:42;;;;;;;30.00;5.00;;;31.30;99.90;;;;;;5130506;28;20463;-81
2022/08/29 13:01:31;;;;;;;40.65;24.30;;;31.10;99.90;;;;;;5132751;28;20023;-82
2022/08/29 13:04:12;;;;;;;22.80;5.70;;;31.10;99.90;;;;;;5138043;28;20103;-81
2022/08/29 13:07:01;;;;;;;23.00;6.00;;;31.30;99.90;;;;;;5143091;28;20031;-76
2022/08/29 13:09:32;;;;;;;30.15;6.13;;;31.00;99.90;;;;;;5130558;28;20518;-78
2022/08/29 13:12:08;;;;;;;19.80;6.10;;;31.10;99.90;;;;;;5146424;28;20035;-80
2022/08/29 13:14:58;;;;;;;220.75;20.88;;;31.10;99.90;;;;;;5134221;28;20027;-81
2022/08/29 13:17:36;;;;;;;20.17;5.93;;;31.10;99.90;;;;;;5132631;28;20030;-76
2022/08/29 13:20:47;;;;;;;22.90;6.05;;;31.20;99.90;;;;;;5135180;28;20523;-81
2022/08/29 13:23:30;;;;;;;27.48;6.20;;;30.80;99.90;;;;;;5132206;28;20098;-82
2022/08/29 13:26:11;;;;;;;23.25;6.70;;;31.10;99.90;;;;;;5136026;28;20037;-81